sensor_id;sensor_type;location;lat;lon;timestamp;P1;durP1;ratioP1;P2;durP2;ratioP2
39020;SDS011;25188;51.958;5.842;2022-09-09T00:04:32;5.45;;;2.92;;
39020;SDS011;25188;51.958;5.842;2022-09-09T00:07:07;6.93;;;3.50;;
39020;SDS011;25188;51.958;5.842;2022-09-09T00:09:53;5.70;;;3.10;;
39020;SDS011;25188;51.958;5.842;2022-09-09T00:15:22;5.80;;;3.17;;
39020;SDS011;25188;51.958;5.842;2022-09-09T00:18:14;4.95;;;2.85;;
39020;SDS011;25188;51.958;5.842;2022-09-09T00:23:52;6.10;;;2.75;;
39020;SDS011;25188;51.958;5.842;2022-09-09T00:29:00;7.32;;;2.88;;
39020;SDS011;25188;51.958;5.842;2022-09-09T00:31:35;5.85;;;2.70;;
39020;SDS011;25188;51.958;5.842;2022-09-09T00:34:12;4.90;;;2.13;;
39020;SDS011;25188;51.958;5.842;2022-09-09T00:36:41;4.90;;;2.40;;
39020;SDS011;25188;51.958;5.842;2022-09-09T00:39:10;4.38;;;2.00;;
39020;SDS011;25188;51.958;5.842;2022-09-09T00:53:11;4.55;;;2.17;;
39020;SDS011;25188;51.958;5.842;2022-09-09T00:55:54;5.68;;;1.60;;
39020;SDS011;25188;51.958;5.842;2022-09-09T00:58:30;4.20;;;2.00;;
39020;SDS011;25188;51.958;5.842;2022-09-09T01:01:04;4.57;;;1.95;;
39020;SDS011;25188;51.958;5.842;2022-09-09T01:03:46;4.68;;;1.75;;
39020;SDS011;25188;51.958;5.842;2022-09-09T01:06:30;4.22;;;1.67;;
39020;SDS011;25188;51.958;5.842;2022-09-09T01:09:01;5.25;;;2.05;;
39020;SDS011;25188;51.958;5.842;2022-09-09T01:16:56;4.68;;;1.48;;
39020;SDS011;25188;51.958;5.842;2022-09-09T01:19:40;4.88;;;1.60;;
39020;SDS011;25188;51.958;5.842;2022-09-09T01:28:10;5.20;;;1.50;;
39020;SDS011;25188;51.958;5.842;2022-09-09T01:30:41;2.80;;;1.50;;
39020;SDS011;25188;51.958;5.842;2022-09-09T01:33:07;3.92;;;1.33;;
39020;SDS011;25188;51.958;5.842;2022-09-09T01:38:49;7.25;;;1.60;;
39020;SDS011;25188;51.958;5.842;2022-09-09T01:41:15;3.78;;;1.73;;
39020;SDS011;25188;51.958;5.842;2022-09-09T01:43:41;4.78;;;1.92;;
39020;SDS011;25188;51.958;5.842;2022-09-09T01:46:06;4.68;;;1.85;;
39020;SDS011;25188;51.958;5.842;2022-09-09T01:48:33;6.07;;;1.70;;
39020;SDS011;25188;51.958;5.842;2022-09-09T01:50:58;5.97;;;2.20;;
39020;SDS011;25188;51.958;5.842;2022-09-09T01:53:24;6.97;;;2.13;;
39020;SDS011;25188;51.958;5.842;2022-09-09T01:58:43;8.15;;;1.70;;
39020;SDS011;25188;51.958;5.842;2022-09-09T02:01:33;6.43;;;1.88;;
39020;SDS011;25188;51.958;5.842;2022-09-09T02:04:02;5.38;;;1.70;;
39020;SDS011;25188;51.958;5.842;2022-09-09T02:06:35;3.95;;;1.88;;
39020;SDS011;25188;51.958;5.842;2022-09-09T02:09:05;5.35;;;1.70;;
39020;SDS011;25188;51.958;5.842;2022-09-09T02:11:34;3.83;;;1.90;;
39020;SDS011;25188;51.958;5.842;2022-09-09T02:14:01;5.55;;;1.92;;
39020;SDS011;25188;51.958;5.842;2022-09-09T02:17:13;5.88;;;2.55;;
39020;SDS011;25188;51.958;5.842;2022-09-09T02:19:56;6.40;;;2.40;;
39020;SDS011;25188;51.958;5.842;2022-09-09T02:22:20;5.00;;;2.08;;
39020;SDS011;25188;51.958;5.842;2022-09-09T02:24:49;4.53;;;2.35;;
39020;SDS011;25188;51.958;5.842;2022-09-09T02:27:18;5.45;;;2.47;;
39020;SDS011;25188;51.958;5.842;2022-09-09T02:29:47;8.05;;;2.55;;
39020;SDS011;25188;51.958;5.842;2022-09-09T02:32:17;6.40;;;2.35;;
39020;SDS011;25188;51.958;5.842;2022-09-09T02:34:57;6.47;;;2.17;;
39020;SDS011;25188;51.958;5.842;2022-09-09T02:37:39;3.85;;;2.35;;
39020;SDS011;25188;51.958;5.842;2022-09-09T02:40:07;5.65;;;2.25;;
39020;SDS011;25188;51.958;5.842;2022-09-09T02:42:45;6.13;;;2.22;;
39020;SDS011;25188;51.958;5.842;2022-09-09T02:45:13;5.55;;;2.50;;
39020;SDS011;25188;51.958;5.842;2022-09-09T02:50:12;6.97;;;2.90;;
39020;SDS011;25188;51.958;5.842;2022-09-09T02:57:55;8.00;;;3.58;;
39020;SDS011;25188;51.958;5.842;2022-09-09T03:00:24;5.60;;;2.80;;
39020;SDS011;25188;51.958;5.842;2022-09-09T03:02:51;8.13;;;2.78;;
39020;SDS011;25188;51.958;5.842;2022-09-09T03:05:17;6.60;;;3.08;;
39020;SDS011;25188;51.958;5.842;2022-09-09T03:07:42;8.13;;;3.28;;
39020;SDS011;25188;51.958;5.842;2022-09-09T03:10:08;7.15;;;2.95;;
39020;SDS011;25188;51.958;5.842;2022-09-09T03:12:35;4.90;;;2.75;;
39020;SDS011;25188;51.958;5.842;2022-09-09T03:15:00;7.45;;;2.80;;
39020;SDS011;25188;51.958;5.842;2022-09-09T03:17:26;5.45;;;2.33;;
39020;SDS011;25188;51.958;5.842;2022-09-09T03:19:53;5.30;;;2.70;;
39020;SDS011;25188;51.958;5.842;2022-09-09T03:22:20;7.88;;;3.15;;
39020;SDS011;25188;51.958;5.842;2022-09-09T03:24:46;7.28;;;2.92;;
39020;SDS011;25188;51.958;5.842;2022-09-09T03:27:12;4.85;;;2.90;;
39020;SDS011;25188;51.958;5.842;2022-09-09T03:29:39;8.38;;;3.10;;
39020;SDS011;25188;51.958;5.842;2022-09-09T03:32:05;7.07;;;3.58;;
39020;SDS011;25188;51.958;5.842;2022-09-09T03:34:31;9.13;;;3.08;;
39020;SDS011;25188;51.958;5.842;2022-09-09T03:36:56;5.85;;;2.58;;
39020;SDS011;25188;51.958;5.842;2022-09-09T03:39:22;7.32;;;3.40;;
39020;SDS011;25188;51.958;5.842;2022-09-09T03:41:48;9.25;;;3.05;;
39020;SDS011;25188;51.958;5.842;2022-09-09T03:44:13;4.45;;;2.42;;
39020;SDS011;25188;51.958;5.842;2022-09-09T03:46:39;6.07;;;3.17;;
39020;SDS011;25188;51.958;5.842;2022-09-09T03:49:05;10.27;;;3.35;;
39020;SDS011;25188;51.958;5.842;2022-09-09T03:51:31;7.85;;;3.00;;
39020;SDS011;25188;51.958;5.842;2022-09-09T03:53:59;7.53;;;3.33;;
39020;SDS011;25188;51.958;5.842;2022-09-09T03:56:24;6.03;;;3.35;;
39020;SDS011;25188;51.958;5.842;2022-09-09T03:58:50;4.85;;;2.75;;
39020;SDS011;25188;51.958;5.842;2022-09-09T04:01:16;7.03;;;3.28;;
39020;SDS011;25188;51.958;5.842;2022-09-09T04:03:42;5.50;;;2.92;;
39020;SDS011;25188;51.958;5.842;2022-09-09T04:06:13;9.73;;;3.55;;
39020;SDS011;25188;51.958;5.842;2022-09-09T04:08:40;5.90;;;3.28;;
39020;SDS011;25188;51.958;5.842;2022-09-09T04:11:06;8.57;;;3.78;;
39020;SDS011;25188;51.958;5.842;2022-09-09T04:13:36;8.15;;;3.35;;
39020;SDS011;25188;51.958;5.842;2022-09-09T04:16:04;10.13;;;3.38;;
39020;SDS011;25188;51.958;5.842;2022-09-09T04:18:30;7.18;;;3.15;;
39020;SDS011;25188;51.958;5.842;2022-09-09T04:20:56;7.95;;;3.47;;
39020;SDS011;25188;51.958;5.842;2022-09-09T04:23:23;7.90;;;3.28;;
39020;SDS011;25188;51.958;5.842;2022-09-09T04:25:51;11.05;;;3.35;;
39020;SDS011;25188;51.958;5.842;2022-09-09T04:28:18;8.82;;;3.65;;
39020;SDS011;25188;51.958;5.842;2022-09-09T04:30:45;7.03;;;2.83;;
39020;SDS011;25188;51.958;5.842;2022-09-09T04:33:12;9.20;;;3.92;;
39020;SDS011;25188;51.958;5.842;2022-09-09T04:35:38;6.78;;;2.92;;
39020;SDS011;25188;51.958;5.842;2022-09-09T04:38:08;8.52;;;3.10;;
39020;SDS011;25188;51.958;5.842;2022-09-09T04:40:34;10.65;;;3.22;;
39020;SDS011;25188;51.958;5.842;2022-09-09T04:43:00;9.75;;;3.35;;
39020;SDS011;25188;51.958;5.842;2022-09-09T04:45:29;5.78;;;2.70;;
39020;SDS011;25188;51.958;5.842;2022-09-09T04:47:55;8.80;;;3.38;;
39020;SDS011;25188;51.958;5.842;2022-09-09T04:50:21;6.68;;;3.25;;
39020;SDS011;25188;51.958;5.842;2022-09-09T04:52:47;6.03;;;2.85;;
39020;SDS011;25188;51.958;5.842;2022-09-09T04:55:13;7.63;;;2.53;;
39020;SDS011;25188;51.958;5.842;2022-09-09T04:57:39;7.38;;;2.10;;
39020;SDS011;25188;51.958;5.842;2022-09-09T05:00:05;7.50;;;2.30;;
39020;SDS011;25188;51.958;5.842;2022-09-09T05:02:32;6.85;;;2.90;;
39020;SDS011;25188;51.958;5.842;2022-09-09T05:04:58;5.78;;;2.28;;
39020;SDS011;25188;51.958;5.842;2022-09-09T05:07:26;8.82;;;3.00;;
39020;SDS011;25188;51.958;5.842;2022-09-09T05:09:52;10.18;;;2.55;;
39020;SDS011;25188;51.958;5.842;2022-09-09T05:12:17;7.97;;;2.60;;
39020;SDS011;25188;51.958;5.842;2022-09-09T05:14:43;7.63;;;2.53;;
39020;SDS011;25188;51.958;5.842;2022-09-09T05:17:09;7.57;;;2.80;;
39020;SDS011;25188;51.958;5.842;2022-09-09T05:19:35;7.05;;;2.50;;
39020;SDS011;25188;51.958;5.842;2022-09-09T05:22:01;9.43;;;2.30;;
39020;SDS011;25188;51.958;5.842;2022-09-09T05:24:27;7.68;;;2.28;;
39020;SDS011;25188;51.958;5.842;2022-09-09T05:26:54;10.63;;;3.28;;
39020;SDS011;25188;51.958;5.842;2022-09-09T05:29:23;6.50;;;2.40;;
39020;SDS011;25188;51.958;5.842;2022-09-09T05:31:48;13.32;;;3.35;;
39020;SDS011;25188;51.958;5.842;2022-09-09T05:34:14;9.35;;;2.45;;
39020;SDS011;25188;51.958;5.842;2022-09-09T05:36:39;10.82;;;2.85;;
39020;SDS011;25188;51.958;5.842;2022-09-09T05:39:05;8.23;;;2.85;;
39020;SDS011;25188;51.958;5.842;2022-09-09T05:41:30;14.18;;;2.83;;
39020;SDS011;25188;51.958;5.842;2022-09-09T05:43:56;5.68;;;2.53;;
39020;SDS011;25188;51.958;5.842;2022-09-09T05:46:24;6.13;;;2.42;;
39020;SDS011;25188;51.958;5.842;2022-09-09T05:48:50;12.07;;;2.88;;
39020;SDS011;25188;51.958;5.842;2022-09-09T05:51:18;11.52;;;3.05;;
39020;SDS011;25188;51.958;5.842;2022-09-09T05:53:46;10.25;;;2.70;;
39020;SDS011;25188;51.958;5.842;2022-09-09T05:56:12;7.63;;;2.58;;
39020;SDS011;25188;51.958;5.842;2022-09-09T05:58:42;10.40;;;2.92;;
39020;SDS011;25188;51.958;5.842;2022-09-09T06:01:12;7.03;;;2.65;;
39020;SDS011;25188;51.958;5.842;2022-09-09T06:03:41;10.75;;;2.60;;
39020;SDS011;25188;51.958;5.842;2022-09-09T06:06:09;8.73;;;2.17;;
39020;SDS011;25188;51.958;5.842;2022-09-09T06:08:40;9.30;;;2.97;;
39020;SDS011;25188;51.958;5.842;2022-09-09T06:11:19;7.82;;;2.63;;
39020;SDS011;25188;51.958;5.842;2022-09-09T06:13:49;12.20;;;2.95;;
39020;SDS011;25188;51.958;5.842;2022-09-09T06:16:20;12.68;;;3.33;;
39020;SDS011;25188;51.958;5.842;2022-09-09T06:18:49;7.35;;;2.35;;
39020;SDS011;25188;51.958;5.842;2022-09-09T06:21:21;10.75;;;3.10;;
39020;SDS011;25188;51.958;5.842;2022-09-09T06:23:48;10.27;;;2.45;;
39020;SDS011;25188;51.958;5.842;2022-09-09T06:26:16;6.85;;;2.58;;
39020;SDS011;25188;51.958;5.842;2022-09-09T06:28:47;10.15;;;2.53;;
39020;SDS011;25188;51.958;5.842;2022-09-09T06:31:15;7.85;;;2.10;;
39020;SDS011;25188;51.958;5.842;2022-09-09T06:36:21;9.68;;;2.58;;
39020;SDS011;25188;51.958;5.842;2022-09-09T06:38:48;11.73;;;2.97;;
39020;SDS011;25188;51.958;5.842;2022-09-09T06:41:15;8.98;;;3.25;;
39020;SDS011;25188;51.958;5.842;2022-09-09T06:43:43;12.32;;;3.33;;
39020;SDS011;25188;51.958;5.842;2022-09-09T06:48:39;12.77;;;2.75;;
39020;SDS011;25188;51.958;5.842;2022-09-09T06:53:34;7.80;;;2.45;;
39020;SDS011;25188;51.958;5.842;2022-09-09T06:56:23;7.88;;;2.20;;
39020;SDS011;25188;51.958;5.842;2022-09-09T06:58:48;8.63;;;2.50;;
39020;SDS011;25188;51.958;5.842;2022-09-09T07:01:19;12.20;;;3.05;;
39020;SDS011;25188;51.958;5.842;2022-09-09T07:03:49;8.40;;;2.15;;
39020;SDS011;25188;51.958;5.842;2022-09-09T07:06:21;9.18;;;2.20;;
39020;SDS011;25188;51.958;5.842;2022-09-09T07:11:17;8.50;;;2.67;;
39020;SDS011;25188;51.958;5.842;2022-09-09T07:13:44;10.07;;;2.05;;
39020;SDS011;25188;51.958;5.842;2022-09-09T07:16:11;8.68;;;2.00;;
39020;SDS011;25188;51.958;5.842;2022-09-09T07:18:39;14.35;;;2.85;;
39020;SDS011;25188;51.958;5.842;2022-09-09T07:21:06;10.10;;;2.17;;
39020;SDS011;25188;51.958;5.842;2022-09-09T07:23:33;11.63;;;2.47;;
39020;SDS011;25188;51.958;5.842;2022-09-09T07:26:00;10.68;;;2.38;;
39020;SDS011;25188;51.958;5.842;2022-09-09T07:28:27;7.30;;;2.40;;
39020;SDS011;25188;51.958;5.842;2022-09-09T07:33:22;10.52;;;1.88;;
39020;SDS011;25188;51.958;5.842;2022-09-09T07:35:49;13.90;;;2.35;;
39020;SDS011;25188;51.958;5.842;2022-09-09T07:38:15;7.22;;;2.05;;
39020;SDS011;25188;51.958;5.842;2022-09-09T07:40:40;8.88;;;2.20;;
39020;SDS011;25188;51.958;5.842;2022-09-09T07:43:06;6.93;;;2.08;;
39020;SDS011;25188;51.958;5.842;2022-09-09T07:45:33;7.93;;;1.63;;
39020;SDS011;25188;51.958;5.842;2022-09-09T07:47:59;8.63;;;2.00;;
39020;SDS011;25188;51.958;5.842;2022-09-09T07:50:25;11.57;;;2.17;;
39020;SDS011;25188;51.958;5.842;2022-09-09T07:52:52;8.73;;;1.67;;
39020;SDS011;25188;51.958;5.842;2022-09-09T07:55:19;10.32;;;1.50;;
39020;SDS011;25188;51.958;5.842;2022-09-09T07:57:50;12.65;;;2.42;;
39020;SDS011;25188;51.958;5.842;2022-09-09T08:00:16;11.57;;;2.15;;
39020;SDS011;25188;51.958;5.842;2022-09-09T08:02:44;10.15;;;1.40;;
39020;SDS011;25188;51.958;5.842;2022-09-09T08:05:11;7.90;;;1.55;;
39020;SDS011;25188;51.958;5.842;2022-09-09T08:07:37;7.50;;;1.08;;
39020;SDS011;25188;51.958;5.842;2022-09-09T08:10:03;9.13;;;1.83;;
39020;SDS011;25188;51.958;5.842;2022-09-09T08:12:29;10.50;;;1.75;;
39020;SDS011;25188;51.958;5.842;2022-09-09T08:14:55;9.27;;;1.02;;
39020;SDS011;25188;51.958;5.842;2022-09-09T08:17:21;6.57;;;1.48;;
39020;SDS011;25188;51.958;5.842;2022-09-09T08:19:46;8.73;;;1.30;;
39020;SDS011;25188;51.958;5.842;2022-09-09T08:22:12;6.75;;;1.30;;
39020;SDS011;25188;51.958;5.842;2022-09-09T08:24:40;7.72;;;1.70;;
39020;SDS011;25188;51.958;5.842;2022-09-09T08:27:06;6.40;;;1.80;;
39020;SDS011;25188;51.958;5.842;2022-09-09T08:29:31;9.55;;;1.27;;
39020;SDS011;25188;51.958;5.842;2022-09-09T08:31:57;4.43;;;1.10;;
39020;SDS011;25188;51.958;5.842;2022-09-09T08:34:24;8.02;;;1.90;;
39020;SDS011;25188;51.958;5.842;2022-09-09T08:36:51;7.65;;;1.48;;
39020;SDS011;25188;51.958;5.842;2022-09-09T08:39:17;8.65;;;1.30;;
39020;SDS011;25188;51.958;5.842;2022-09-09T08:54:50;9.80;;;1.10;;
39020;SDS011;25188;51.958;5.842;2022-09-09T08:57:19;7.13;;;1.08;;
39020;SDS011;25188;51.958;5.842;2022-09-09T08:59:53;6.63;;;1.27;;
39020;SDS011;25188;51.958;5.842;2022-09-09T09:02:26;8.13;;;1.13;;
39020;SDS011;25188;51.958;5.842;2022-09-09T09:13:20;6.78;;;0.93;;
39020;SDS011;25188;51.958;5.842;2022-09-09T09:19:38;5.18;;;1.15;;
39020;SDS011;25188;51.958;5.842;2022-09-09T09:24:50;7.90;;;1.30;;
39020;SDS011;25188;51.958;5.842;2022-09-09T09:28:26;7.93;;;1.23;;
39020;SDS011;25188;51.958;5.842;2022-09-09T09:30:34;7.85;;;1.00;;
39020;SDS011;25188;51.958;5.842;2022-09-09T09:36:18;4.10;;;1.10;;
39020;SDS011;25188;51.958;5.842;2022-09-09T09:38:54;7.25;;;1.17;;
39020;SDS011;25188;51.958;5.842;2022-09-09T09:41:29;7.35;;;1.48;;
39020;SDS011;25188;51.958;5.842;2022-09-09T09:43:56;8.48;;;1.30;;
39020;SDS011;25188;51.958;5.842;2022-09-09T09:46:22;6.32;;;0.90;;
39020;SDS011;25188;51.958;5.842;2022-09-09T09:49:03;3.58;;;0.75;;
39020;SDS011;25188;51.958;5.842;2022-09-09T09:51:31;5.45;;;0.93;;
39020;SDS011;25188;51.958;5.842;2022-09-09T09:54:18;8.45;;;1.10;;
39020;SDS011;25188;51.958;5.842;2022-09-09T09:57:07;6.85;;;1.10;;
39020;SDS011;25188;51.958;5.842;2022-09-09T09:59:38;5.88;;;0.88;;
39020;SDS011;25188;51.958;5.842;2022-09-09T10:04:39;5.85;;;1.00;;
39020;SDS011;25188;51.958;5.842;2022-09-09T10:07:19;7.05;;;0.98;;
39020;SDS011;25188;51.958;5.842;2022-09-09T10:09:47;5.38;;;0.93;;
39020;SDS011;25188;51.958;5.842;2022-09-09T10:18:18;5.95;;;1.10;;
39020;SDS011;25188;51.958;5.842;2022-09-09T10:30:27;7.63;;;0.85;;
39020;SDS011;25188;51.958;5.842;2022-09-09T10:35:52;7.32;;;0.95;;
39020;SDS011;25188;51.958;5.842;2022-09-09T10:38:39;7.30;;;0.90;;
39020;SDS011;25188;51.958;5.842;2022-09-09T10:42:16;8.40;;;1.35;;
39020;SDS011;25188;51.958;5.842;2022-09-09T10:47:49;6.72;;;1.10;;
39020;SDS011;25188;51.958;5.842;2022-09-09T10:55:57;7.03;;;0.85;;
39020;SDS011;25188;51.958;5.842;2022-09-09T10:58:53;7.75;;;0.85;;
39020;SDS011;25188;51.958;5.842;2022-09-09T11:06:34;9.40;;;1.42;;
39020;SDS011;25188;51.958;5.842;2022-09-09T11:09:04;6.45;;;0.80;;
39020;SDS011;25188;51.958;5.842;2022-09-09T11:11:34;6.88;;;1.00;;
39020;SDS011;25188;51.958;5.842;2022-09-09T11:14:12;6.63;;;0.80;;
39020;SDS011;25188;51.958;5.842;2022-09-09T11:19:26;6.75;;;0.98;;
39020;SDS011;25188;51.958;5.842;2022-09-09T11:21:53;4.70;;;0.80;;
39020;SDS011;25188;51.958;5.842;2022-09-09T11:26:58;7.65;;;0.95;;
39020;SDS011;25188;51.958;5.842;2022-09-09T11:42:48;5.13;;;0.95;;
39020;SDS011;25188;51.958;5.842;2022-09-09T11:45:26;4.47;;;0.82;;
39020;SDS011;25188;51.958;5.842;2022-09-09T11:47:56;4.00;;;0.77;;
39020;SDS011;25188;51.958;5.842;2022-09-09T11:53:02;6.75;;;1.00;;
39020;SDS011;25188;51.958;5.842;2022-09-09T11:55:33;4.55;;;0.60;;
39020;SDS011;25188;51.958;5.842;2022-09-09T11:58:05;5.55;;;0.70;;
39020;SDS011;25188;51.958;5.842;2022-09-09T12:00:42;6.80;;;1.13;;
39020;SDS011;25188;51.958;5.842;2022-09-09T12:06:14;3.20;;;0.60;;
39020;SDS011;25188;51.958;5.842;2022-09-09T12:09:12;6.00;;;0.98;;
39020;SDS011;25188;51.958;5.842;2022-09-09T12:11:49;3.35;;;0.50;;
39020;SDS011;25188;51.958;5.842;2022-09-09T12:14:34;5.15;;;0.60;;
39020;SDS011;25188;51.958;5.842;2022-09-09T12:17:24;3.50;;;0.73;;
39020;SDS011;25188;51.958;5.842;2022-09-09T12:33:42;6.07;;;0.70;;
39020;SDS011;25188;51.958;5.842;2022-09-09T12:36:22;3.05;;;0.60;;
39020;SDS011;25188;51.958;5.842;2022-09-09T12:38:58;4.00;;;1.05;;
39020;SDS011;25188;51.958;5.842;2022-09-09T12:41:35;3.03;;;0.60;;
39020;SDS011;25188;51.958;5.842;2022-09-09T12:44:04;3.80;;;0.60;;
39020;SDS011;25188;51.958;5.842;2022-09-09T12:46:40;3.50;;;0.65;;
39020;SDS011;25188;51.958;5.842;2022-09-09T12:49:28;4.93;;;0.82;;
39020;SDS011;25188;51.958;5.842;2022-09-09T12:52:05;4.72;;;0.90;;
39020;SDS011;25188;51.958;5.842;2022-09-09T12:54:43;3.45;;;0.65;;
39020;SDS011;25188;51.958;5.842;2022-09-09T12:57:11;3.05;;;0.80;;
39020;SDS011;25188;51.958;5.842;2022-09-09T12:59:40;4.43;;;0.70;;
39020;SDS011;25188;51.958;5.842;2022-09-09T13:02:28;3.05;;;0.50;;
39020;SDS011;25188;51.958;5.842;2022-09-09T13:04:54;3.65;;;0.68;;
39020;SDS011;25188;51.958;5.842;2022-09-09T13:07:21;3.92;;;0.82;;
39020;SDS011;25188;51.958;5.842;2022-09-09T13:09:47;5.18;;;0.70;;
39020;SDS011;25188;51.958;5.842;2022-09-09T13:12:15;4.93;;;0.90;;
39020;SDS011;25188;51.958;5.842;2022-09-09T13:14:48;3.60;;;0.70;;
39020;SDS011;25188;51.958;5.842;2022-09-09T13:17:21;2.85;;;0.70;;
39020;SDS011;25188;51.958;5.842;2022-09-09T13:19:53;5.13;;;0.95;;
39020;SDS011;25188;51.958;5.842;2022-09-09T13:22:28;2.55;;;0.60;;
39020;SDS011;25188;51.958;5.842;2022-09-09T13:28:18;5.15;;;1.00;;
39020;SDS011;25188;51.958;5.842;2022-09-09T13:30:34;3.72;;;0.82;;
39020;SDS011;25188;51.958;5.842;2022-09-09T13:33:02;4.10;;;0.80;;
39020;SDS011;25188;51.958;5.842;2022-09-09T13:38:24;5.63;;;0.90;;
39020;SDS011;25188;51.958;5.842;2022-09-09T13:41:03;5.57;;;0.90;;
39020;SDS011;25188;51.958;5.842;2022-09-09T13:44:04;5.13;;;0.93;;
39020;SDS011;25188;51.958;5.842;2022-09-09T13:46:39;4.85;;;0.63;;
39020;SDS011;25188;51.958;5.842;2022-09-09T13:51:35;6.05;;;1.00;;
39020;SDS011;25188;51.958;5.842;2022-09-09T13:54:18;4.38;;;0.80;;
39020;SDS011;25188;51.958;5.842;2022-09-09T13:56:44;7.25;;;1.13;;
39020;SDS011;25188;51.958;5.842;2022-09-09T13:59:15;4.40;;;0.80;;
39020;SDS011;25188;51.958;5.842;2022-09-09T14:01:44;4.07;;;0.95;;
39020;SDS011;25188;51.958;5.842;2022-09-09T14:04:10;3.58;;;0.68;;
39020;SDS011;25188;51.958;5.842;2022-09-09T14:06:51;4.10;;;0.70;;
39020;SDS011;25188;51.958;5.842;2022-09-09T14:09:42;4.70;;;0.60;;
39020;SDS011;25188;51.958;5.842;2022-09-09T14:12:11;4.05;;;0.73;;
39020;SDS011;25188;51.958;5.842;2022-09-09T14:14:40;3.88;;;0.70;;
39020;SDS011;25188;51.958;5.842;2022-09-09T14:17:10;4.60;;;0.40;;
39020;SDS011;25188;51.958;5.842;2022-09-09T14:19:35;4.88;;;0.70;;
39020;SDS011;25188;51.958;5.842;2022-09-09T14:22:02;3.42;;;0.60;;
39020;SDS011;25188;51.958;5.842;2022-09-09T14:24:28;5.93;;;1.10;;
39020;SDS011;25188;51.958;5.842;2022-09-09T14:26:55;4.35;;;0.73;;
39020;SDS011;25188;51.958;5.842;2022-09-09T14:29:26;2.15;;;0.60;;
39020;SDS011;25188;51.958;5.842;2022-09-09T14:31:51;2.45;;;0.50;;
39020;SDS011;25188;51.958;5.842;2022-09-09T14:34:29;3.08;;;0.65;;
39020;SDS011;25188;51.958;5.842;2022-09-09T14:36:57;4.20;;;0.68;;
39020;SDS011;25188;51.958;5.842;2022-09-09T14:39:25;3.00;;;0.50;;
39020;SDS011;25188;51.958;5.842;2022-09-09T14:41:53;2.45;;;0.52;;
39020;SDS011;25188;51.958;5.842;2022-09-09T14:44:19;4.03;;;1.08;;
39020;SDS011;25188;51.958;5.842;2022-09-09T14:46:47;2.33;;;0.60;;
39020;SDS011;25188;51.958;5.842;2022-09-09T14:49:15;4.13;;;0.90;;
39020;SDS011;25188;51.958;5.842;2022-09-09T14:51:43;3.85;;;0.60;;
39020;SDS011;25188;51.958;5.842;2022-09-09T14:54:12;3.63;;;0.70;;
39020;SDS011;25188;51.958;5.842;2022-09-09T14:56:39;4.28;;;0.70;;
39020;SDS011;25188;51.958;5.842;2022-09-09T14:59:07;2.92;;;0.60;;
39020;SDS011;25188;51.958;5.842;2022-09-09T15:01:33;6.53;;;0.77;;
39020;SDS011;25188;51.958;5.842;2022-09-09T15:04:00;2.90;;;0.70;;
39020;SDS011;25188;51.958;5.842;2022-09-09T15:06:35;2.90;;;0.70;;
39020;SDS011;25188;51.958;5.842;2022-09-09T15:09:04;3.20;;;0.50;;
39020;SDS011;25188;51.958;5.842;2022-09-09T15:11:31;6.30;;;1.08;;
39020;SDS011;25188;51.958;5.842;2022-09-09T15:14:08;4.43;;;0.63;;
39020;SDS011;25188;51.958;5.842;2022-09-09T15:16:34;5.20;;;0.73;;
39020;SDS011;25188;51.958;5.842;2022-09-09T15:19:03;4.00;;;0.50;;
39020;SDS011;25188;51.958;5.842;2022-09-09T15:21:30;3.67;;;0.80;;
39020;SDS011;25188;51.958;5.842;2022-09-09T15:24:15;7.57;;;0.82;;
39020;SDS011;25188;51.958;5.842;2022-09-09T15:26:41;4.13;;;0.93;;
39020;SDS011;25188;51.958;5.842;2022-09-09T15:29:20;4.85;;;0.70;;
39020;SDS011;25188;51.958;5.842;2022-09-09T15:31:45;4.85;;;0.85;;
39020;SDS011;25188;51.958;5.842;2022-09-09T15:34:11;2.67;;;0.85;;
39020;SDS011;25188;51.958;5.842;2022-09-09T15:36:45;5.25;;;0.88;;
39020;SDS011;25188;51.958;5.842;2022-09-09T15:39:12;3.50;;;0.80;;
39020;SDS011;25188;51.958;5.842;2022-09-09T15:41:41;3.55;;;0.75;;
39020;SDS011;25188;51.958;5.842;2022-09-09T15:44:13;2.17;;;0.43;;
39020;SDS011;25188;51.958;5.842;2022-09-09T15:51:41;5.22;;;0.60;;
39020;SDS011;25188;51.958;5.842;2022-09-09T15:54:13;3.70;;;0.50;;
39020;SDS011;25188;51.958;5.842;2022-09-09T15:56:45;4.90;;;0.73;;
39020;SDS011;25188;51.958;5.842;2022-09-09T15:59:13;7.43;;;1.60;;
39020;SDS011;25188;51.958;5.842;2022-09-09T16:01:39;7.32;;;1.83;;
39020;SDS011;25188;51.958;5.842;2022-09-09T16:04:05;12.00;;;2.22;;
39020;SDS011;25188;51.958;5.842;2022-09-09T16:06:31;8.38;;;1.48;;
39020;SDS011;25188;51.958;5.842;2022-09-09T16:08:58;5.65;;;1.15;;
39020;SDS011;25188;51.958;5.842;2022-09-09T16:11:27;6.68;;;1.30;;
39020;SDS011;25188;51.958;5.842;2022-09-09T16:13:57;6.50;;;1.73;;
39020;SDS011;25188;51.958;5.842;2022-09-09T16:16:24;7.25;;;1.58;;
39020;SDS011;25188;51.958;5.842;2022-09-09T16:18:53;4.20;;;1.23;;
39020;SDS011;25188;51.958;5.842;2022-09-09T16:23:51;4.85;;;1.52;;
39020;SDS011;25188;51.958;5.842;2022-09-09T16:26:18;6.28;;;1.58;;
39020;SDS011;25188;51.958;5.842;2022-09-09T16:28:44;5.50;;;1.50;;
39020;SDS011;25188;51.958;5.842;2022-09-09T16:31:13;4.13;;;1.48;;
39020;SDS011;25188;51.958;5.842;2022-09-09T16:33:43;5.60;;;1.73;;
39020;SDS011;25188;51.958;5.842;2022-09-09T16:36:10;4.43;;;1.77;;
39020;SDS011;25188;51.958;5.842;2022-09-09T16:38:39;6.75;;;1.75;;
39020;SDS011;25188;51.958;5.842;2022-09-09T16:41:05;6.15;;;2.00;;
39020;SDS011;25188;51.958;5.842;2022-09-09T16:43:34;9.30;;;2.10;;
39020;SDS011;25188;51.958;5.842;2022-09-09T16:46:01;10.13;;;2.20;;
39020;SDS011;25188;51.958;5.842;2022-09-09T16:48:31;5.03;;;1.60;;
39020;SDS011;25188;51.958;5.842;2022-09-09T16:51:04;3.78;;;1.40;;
39020;SDS011;25188;51.958;5.842;2022-09-09T16:53:31;2.78;;;1.55;;
39020;SDS011;25188;51.958;5.842;2022-09-09T16:55:58;2.65;;;1.67;;
39020;SDS011;25188;51.958;5.842;2022-09-09T16:58:29;3.35;;;1.45;;
39020;SDS011;25188;51.958;5.842;2022-09-09T17:00:58;4.72;;;2.40;;
39020;SDS011;25188;51.958;5.842;2022-09-09T17:03:28;5.85;;;2.22;;
39020;SDS011;25188;51.958;5.842;2022-09-09T17:05:54;4.50;;;1.85;;
39020;SDS011;25188;51.958;5.842;2022-09-09T17:08:21;3.65;;;1.60;;
39020;SDS011;25188;51.958;5.842;2022-09-09T17:10:46;9.07;;;1.88;;
39020;SDS011;25188;51.958;5.842;2022-09-09T17:13:12;6.32;;;2.00;;
39020;SDS011;25188;51.958;5.842;2022-09-09T17:15:41;5.38;;;1.90;;
39020;SDS011;25188;51.958;5.842;2022-09-09T17:18:09;5.03;;;1.95;;
39020;SDS011;25188;51.958;5.842;2022-09-09T17:20:39;3.05;;;1.73;;
39020;SDS011;25188;51.958;5.842;2022-09-09T17:23:06;4.53;;;1.55;;
39020;SDS011;25188;51.958;5.842;2022-09-09T17:25:34;5.32;;;2.03;;
39020;SDS011;25188;51.958;5.842;2022-09-09T17:28:01;6.32;;;1.95;;
39020;SDS011;25188;51.958;5.842;2022-09-09T17:30:29;4.72;;;2.08;;
39020;SDS011;25188;51.958;5.842;2022-09-09T17:33:02;5.43;;;2.17;;
39020;SDS011;25188;51.958;5.842;2022-09-09T17:35:29;5.28;;;2.00;;
39020;SDS011;25188;51.958;5.842;2022-09-09T17:37:58;5.97;;;2.67;;
39020;SDS011;25188;51.958;5.842;2022-09-09T17:40:24;7.25;;;2.30;;
39020;SDS011;25188;51.958;5.842;2022-09-09T17:42:49;3.95;;;1.90;;
39020;SDS011;25188;51.958;5.842;2022-09-09T17:45:15;4.65;;;2.10;;
39020;SDS011;25188;51.958;5.842;2022-09-09T17:47:41;3.90;;;2.10;;
39020;SDS011;25188;51.958;5.842;2022-09-09T17:50:08;5.20;;;3.03;;
39020;SDS011;25188;51.958;5.842;2022-09-09T17:52:35;6.07;;;3.45;;
39020;SDS011;25188;51.958;5.842;2022-09-09T17:55:03;6.68;;;3.03;;
39020;SDS011;25188;51.958;5.842;2022-09-09T17:57:29;9.07;;;3.17;;
39020;SDS011;25188;51.958;5.842;2022-09-09T17:59:55;6.47;;;2.45;;
39020;SDS011;25188;51.958;5.842;2022-09-09T18:02:20;5.05;;;2.42;;
39020;SDS011;25188;51.958;5.842;2022-09-09T18:04:46;4.18;;;2.47;;